createdAt,value
2023-02-06T00:02:14.945Z,12.63
2023-02-06T00:04:41.468Z,11.73
2023-02-06T00:07:08.406Z,11.50
2023-02-06T00:09:34.898Z,14.13
2023-02-06T00:12:01.431Z,13.47
2023-02-06T00:14:27.880Z,14.73
2023-02-06T00:16:54.382Z,10.30
2023-02-06T00:19:20.841Z,16.43
2023-02-06T00:21:47.304Z,13.83
2023-02-06T00:24:13.734Z,9.93
2023-02-06T00:26:40.192Z,15.93
2023-02-06T00:29:06.630Z,13.23
2023-02-06T00:31:33.221Z,11.37
2023-02-06T00:33:59.715Z,12.83
2023-02-06T00:36:26.253Z,15.03
2023-02-06T00:38:53.104Z,18.63
2023-02-06T00:41:19.639Z,11.27
2023-02-06T00:43:46.154Z,17.27
2023-02-06T00:46:12.693Z,9.97
2023-02-06T00:48:39.189Z,13.53
2023-02-06T00:51:05.831Z,16.17
2023-02-06T00:53:32.449Z,14.93
2023-02-06T00:55:58.899Z,10.37
2023-02-06T00:58:25.447Z,10.63
2023-02-06T01:00:52.834Z,19.53
2023-02-06T01:03:19.367Z,14.10
2023-02-06T01:05:46.055Z,12.63
2023-02-06T01:08:12.521Z,11.40
2023-02-06T01:10:41.879Z,18.83
2023-02-06T01:13:08.521Z,11.73
2023-02-06T01:15:35.220Z,17.67
2023-02-06T01:18:01.910Z,12.73
2023-02-06T01:20:28.431Z,15.63
2023-02-06T01:22:54.897Z,13.33
2023-02-06T01:25:21.399Z,17.10
2023-02-06T01:27:47.908Z,14.90
2023-02-06T01:30:14.543Z,14.27
2023-02-06T01:32:41.831Z,11.13
2023-02-06T01:35:10.278Z,15.67
2023-02-06T01:37:36.828Z,17.20
2023-02-06T01:40:04.875Z,19.33
2023-02-06T01:42:34.676Z,15.73
2023-02-06T01:45:25.907Z,13.67
2023-02-06T01:47:58.889Z,17.87
2023-02-06T01:50:25.531Z,17.87
2023-02-06T01:52:52.217Z,15.07
2023-02-06T01:55:18.692Z,19.20
2023-02-06T01:57:45.373Z,19.30
2023-02-06T02:00:12.453Z,15.97
2023-02-06T02:02:43.048Z,13.13
2023-02-06T02:05:12.150Z,22.53
2023-02-06T02:07:44.354Z,21.77
2023-02-06T02:10:10.901Z,16.47
2023-02-06T02:12:37.376Z,17.33
2023-02-06T02:15:04.215Z,15.30
2023-02-06T02:17:43.549Z,12.83
2023-02-06T02:20:33.500Z,12.33
2023-02-06T02:23:30.737Z,12.00
2023-02-06T02:26:06.715Z,12.57
2023-02-06T02:29:06.759Z,9.37
2023-02-06T02:32:04.692Z,13.97
2023-02-06T02:34:46.265Z,17.33
2023-02-06T02:37:25.350Z,14.00
2023-02-06T02:40:16.791Z,11.43
2023-02-06T02:43:12.431Z,11.80
2023-02-06T02:45:54.193Z,15.97
2023-02-06T02:48:27.068Z,12.97
2023-02-06T02:50:54.315Z,16.47
2023-02-06T02:53:21.372Z,13.93
2023-02-06T02:55:48.073Z,9.80
2023-02-06T02:58:17.362Z,10.80
2023-02-06T03:00:47.597Z,11.67
2023-02-06T03:03:15.993Z,13.50
2023-02-06T03:06:20.511Z,13.37
2023-02-06T03:08:53.108Z,10.10
2023-02-06T03:11:21.177Z,18.67
2023-02-06T03:13:53.736Z,17.13
2023-02-06T03:16:25.030Z,16.03
2023-02-06T03:19:14.025Z,18.33
2023-02-06T03:21:41.748Z,20.33
2023-02-06T03:24:10.916Z,22.80
2023-02-06T03:26:38.272Z,15.17
2023-02-06T03:29:08.649Z,16.20
2023-02-06T03:31:40.966Z,15.80
2023-02-06T03:34:12.343Z,24.43
2023-02-06T03:36:38.849Z,15.87
2023-02-06T03:39:05.460Z,17.63
2023-02-06T03:41:34.681Z,20.00
2023-02-06T03:44:02.154Z,20.17
2023-02-06T03:46:29.050Z,22.20
2023-02-06T03:48:59.353Z,20.70
2023-02-06T03:51:30.283Z,17.43
2023-02-06T03:53:59.509Z,25.23
2023-02-06T03:56:32.017Z,23.37
2023-02-06T03:58:58.589Z,21.77
2023-02-06T04:01:25.101Z,19.60
2023-02-06T04:03:51.704Z,16.27
2023-02-06T04:06:18.203Z,21.27
2023-02-06T04:08:44.645Z,21.73
2023-02-06T04:11:11.175Z,25.00
2023-02-06T04:13:37.778Z,23.90
2023-02-06T04:16:04.502Z,18.47
2023-02-06T04:18:30.993Z,25.33
2023-02-06T04:21:06.275Z,24.33
2023-02-06T04:23:33.098Z,19.57
2023-02-06T04:25:59.697Z,19.20
2023-02-06T04:28:26.295Z,17.23
2023-02-06T04:30:53.003Z,25.73
2023-02-06T04:33:19.536Z,21.80
2023-02-06T04:35:47.480Z,21.03
2023-02-06T04:38:14.159Z,23.67
2023-02-06T04:40:40.609Z,26.80
2023-02-06T04:43:07.074Z,23.03
2023-02-06T04:45:33.632Z,32.87
2023-02-06T04:48:00.113Z,25.97
2023-02-06T04:50:31.298Z,26.70
2023-02-06T04:52:58.226Z,24.83
2023-02-06T04:55:24.730Z,26.87
2023-02-06T04:57:51.257Z,21.27
2023-02-06T05:00:18.053Z,23.70
2023-02-06T05:02:44.546Z,31.17
2023-02-06T05:05:11.147Z,20.33
2023-02-06T05:07:37.646Z,22.93
2023-02-06T05:10:04.303Z,21.97
2023-02-06T05:12:30.751Z,23.80
2023-02-06T05:14:57.208Z,24.43
2023-02-06T05:17:23.642Z,21.53
2023-02-06T05:19:50.082Z,25.33
2023-02-06T05:22:16.587Z,19.30
2023-02-06T05:24:43.017Z,24.23
2023-02-06T05:27:09.510Z,27.33
2023-02-06T05:29:35.942Z,25.03
2023-02-06T05:32:02.411Z,21.77
2023-02-06T05:34:28.846Z,31.87
2023-02-06T05:36:55.301Z,27.30
2023-02-06T05:39:21.862Z,27.73
2023-02-06T05:41:48.309Z,23.47
2023-02-06T05:44:14.781Z,20.73
2023-02-06T05:46:41.336Z,20.43
2023-02-06T05:49:07.894Z,19.33
2023-02-06T05:51:34.355Z,20.17
2023-02-06T05:54:00.866Z,18.20
2023-02-06T05:56:27.367Z,24.07
2023-02-06T05:58:53.809Z,25.03
2023-02-06T06:01:20.335Z,18.77
2023-02-06T06:03:46.810Z,30.60
2023-02-06T06:06:13.279Z,19.37
2023-02-06T06:08:39.873Z,19.53
2023-02-06T06:11:07.540Z,19.70
2023-02-06T06:13:34.473Z,20.43
2023-02-06T06:16:00.982Z,28.77
2023-02-06T06:18:27.492Z,39.27
2023-02-06T06:20:54.129Z,45.77
2023-02-06T06:23:20.635Z,50.67
2023-02-06T06:25:48.099Z,37.50
2023-02-06T06:28:14.669Z,56.13
2023-02-06T06:30:41.314Z,49.50
2023-02-06T06:33:07.792Z,41.97
2023-02-06T06:35:34.494Z,60.93
2023-02-06T06:38:01.123Z,70.73
2023-02-06T06:40:27.871Z,53.93
2023-02-06T06:42:54.340Z,48.63
2023-02-06T06:45:20.924Z,55.70
2023-02-06T06:47:47.374Z,52.73
2023-02-06T06:50:13.836Z,71.40
2023-02-06T06:52:40.274Z,46.77
2023-02-06T06:55:07.011Z,48.57
2023-02-06T06:57:33.469Z,43.47
2023-02-06T06:59:59.942Z,46.17
2023-02-06T07:02:28.479Z,42.30
2023-02-06T07:04:55.588Z,40.57
2023-02-06T07:07:22.113Z,88.00
2023-02-06T07:09:48.651Z,52.47
2023-02-06T07:12:15.664Z,55.67
2023-02-06T07:14:42.124Z,46.10
2023-02-06T07:17:08.610Z,46.27
2023-02-06T07:19:35.068Z,45.77
2023-02-06T07:22:01.603Z,48.27
2023-02-06T07:24:28.067Z,45.03
2023-02-06T07:26:54.570Z,54.27
2023-02-06T07:29:21.014Z,63.47
2023-02-06T07:31:47.509Z,36.47
2023-02-06T07:34:14.324Z,31.33
2023-02-06T07:36:40.815Z,45.40
2023-02-06T07:39:07.269Z,43.17
2023-02-06T07:41:33.832Z,39.23
2023-02-06T07:44:00.908Z,36.33
2023-02-06T07:46:28.212Z,27.83
2023-02-06T07:48:54.690Z,30.53
2023-02-06T07:51:21.280Z,27.23
2023-02-06T07:53:48.468Z,21.93
2023-02-06T07:56:17.417Z,22.50
2023-02-06T07:58:44.483Z,25.87
2023-02-06T08:01:11.259Z,28.20
2023-02-06T08:03:37.738Z,28.40
2023-02-06T08:06:09.336Z,24.77
2023-02-06T08:08:35.865Z,21.40
2023-02-06T08:11:07.326Z,29.17
2023-02-06T08:13:35.102Z,43.53
2023-02-06T08:16:06.488Z,35.20
2023-02-06T08:18:33.107Z,44.27
2023-02-06T08:21:08.153Z,44.03
2023-02-06T08:23:34.807Z,64.23
2023-02-06T08:26:03.865Z,56.43
2023-02-06T08:28:31.037Z,61.13
2023-02-06T08:30:57.957Z,49.67
2023-02-06T08:33:24.471Z,46.97
2023-02-06T08:35:50.952Z,53.60
2023-02-06T08:38:17.425Z,52.03
2023-02-06T08:40:43.884Z,51.33
2023-02-06T08:43:10.843Z,54.20
2023-02-06T08:45:37.573Z,43.20
2023-02-06T08:48:04.161Z,45.07
2023-02-06T08:50:30.727Z,46.93
2023-02-06T08:52:57.270Z,52.20
2023-02-06T08:55:37.293Z,63.33
2023-02-06T08:58:04.494Z,50.17
2023-02-06T09:00:31.099Z,156.60
2023-02-06T09:02:57.717Z,42.53
2023-02-06T09:05:24.397Z,159.67
2023-02-06T09:07:50.893Z,129.07
2023-02-06T09:10:27.081Z,78.13
2023-02-06T09:12:54.840Z,53.20
2023-02-06T09:15:21.366Z,31.37
2023-02-06T09:17:47.918Z,32.33
2023-02-06T09:20:14.402Z,225.80
2023-02-06T09:22:40.861Z,80.60
2023-02-06T09:25:07.653Z,104.50
2023-02-06T09:27:34.186Z,54.50
2023-02-06T09:30:00.623Z,23.10
2023-02-06T09:32:27.101Z,49.03
2023-02-06T09:34:53.610Z,117.67
2023-02-06T09:37:20.180Z,71.97
2023-02-06T09:39:46.615Z,85.23
2023-02-06T09:42:19.273Z,108.17
2023-02-06T09:44:49.346Z,75.50
2023-02-06T09:47:31.251Z,95.03
2023-02-06T09:50:07.439Z,102.37
2023-02-06T09:52:54.655Z,83.70
2023-02-06T09:55:40.267Z,42.70
2023-02-06T09:58:16.338Z,42.23
2023-02-06T10:00:58.399Z,79.37
2023-02-06T10:03:57.320Z,70.87
2023-02-06T10:06:54.352Z,49.73
2023-02-06T10:09:26.185Z,92.60
2023-02-06T10:11:56.584Z,43.77
2023-02-06T10:14:35.157Z,37.70
2023-02-06T10:17:05.162Z,27.87
2023-02-06T10:19:44.160Z,84.63
2023-02-06T10:22:31.754Z,41.97
2023-02-06T10:25:16.707Z,51.00
2023-02-06T10:27:45.189Z,29.83
2023-02-06T10:30:18.054Z,48.07
2023-02-06T10:32:57.308Z,48.67
2023-02-06T10:35:32.167Z,53.40
2023-02-06T10:38:29.614Z,75.57
2023-02-06T10:40:59.798Z,111.80
2023-02-06T10:43:35.049Z,62.93
2023-02-06T10:46:20.461Z,46.43
2023-02-06T10:48:55.767Z,65.17
2023-02-06T10:51:28.796Z,70.37
2023-02-06T10:54:00.270Z,66.13
2023-02-06T10:56:49.220Z,39.93
2023-02-06T10:59:29.388Z,54.13
2023-02-06T11:02:04.095Z,31.03
2023-02-06T11:04:36.524Z,69.17
2023-02-06T11:07:13.426Z,36.20
2023-02-06T11:09:40.060Z,33.70
2023-02-06T11:12:18.829Z,46.33
2023-02-06T11:14:45.295Z,30.47
2023-02-06T11:17:15.247Z,46.43
2023-02-06T11:19:44.498Z,55.47
2023-02-06T11:22:16.235Z,36.23
2023-02-06T11:25:07.856Z,28.97
2023-02-06T11:27:35.763Z,64.33
2023-02-06T11:30:08.319Z,24.07
2023-02-06T11:32:52.742Z,42.13
2023-02-06T11:35:39.885Z,40.00
2023-02-06T11:38:23.107Z,22.70
2023-02-06T11:41:18.518Z,22.20
2023-02-06T11:43:51.979Z,35.27
2023-02-06T11:46:27.362Z,40.60
2023-02-06T11:48:58.526Z,23.63
2023-02-06T11:51:25.332Z,19.70
2023-02-06T11:53:58.766Z,27.13
2023-02-06T11:56:26.655Z,17.13
2023-02-06T11:59:17.168Z,15.53
2023-02-06T12:01:46.390Z,14.57
2023-02-06T12:04:24.635Z,30.57
2023-02-06T12:06:59.386Z,14.97
2023-02-06T12:09:25.989Z,18.30
2023-02-06T12:12:28.088Z,39.07
2023-02-06T12:14:57.880Z,25.43
2023-02-06T12:17:32.317Z,23.87
2023-02-06T12:20:03.913Z,28.17
2023-02-06T12:22:35.264Z,26.90
2023-02-06T12:25:03.511Z,23.30
2023-02-06T12:27:40.662Z,38.53
2023-02-06T12:30:29.127Z,27.40
2023-02-06T12:33:03.640Z,27.43
2023-02-06T12:35:35.459Z,18.67
2023-02-06T12:38:10.811Z,17.33
2023-02-06T12:40:59.184Z,19.87
2023-02-06T12:43:26.062Z,21.47
2023-02-06T12:46:04.498Z,25.90
2023-02-06T12:48:45.776Z,19.23
2023-02-06T12:51:36.220Z,22.20
2023-02-06T12:54:16.952Z,22.73
2023-02-06T12:56:55.350Z,26.43
2023-02-06T12:59:57.133Z,33.63
2023-02-06T13:02:48.614Z,27.70
2023-02-06T13:05:26.698Z,32.70
2023-02-06T13:07:55.094Z,25.80
2023-02-06T13:10:25.449Z,22.23
2023-02-06T13:12:59.184Z,24.20
2023-02-06T13:15:28.340Z,24.73
2023-02-06T13:17:55.846Z,25.43
2023-02-06T13:20:24.401Z,25.03
2023-02-06T13:22:52.101Z,28.97
2023-02-06T13:25:30.864Z,22.27
2023-02-06T13:27:59.444Z,19.27
2023-02-06T13:30:29.031Z,25.53
2023-02-06T13:33:16.649Z,24.87
2023-02-06T13:35:57.261Z,26.57
2023-02-06T13:38:23.691Z,26.27
2023-02-06T13:41:15.401Z,20.90
2023-02-06T13:43:50.725Z,22.13
2023-02-06T13:46:23.084Z,29.20
2023-02-06T13:49:00.655Z,25.47
2023-02-06T13:51:43.538Z,22.30
2023-02-06T13:54:37.883Z,20.87
2023-02-06T13:57:16.636Z,29.00
2023-02-06T13:59:47.719Z,27.23
2023-02-06T14:02:22.953Z,23.53
2023-02-06T14:04:50.168Z,23.37
2023-02-06T14:07:21.951Z,19.60
2023-02-06T14:10:31.563Z,24.23
2023-02-06T14:13:12.160Z,24.00
2023-02-06T14:16:02.134Z,21.10
2023-02-06T14:18:35.722Z,27.67
2023-02-06T14:21:20.571Z,26.13
2023-02-06T14:23:59.310Z,21.03
2023-02-06T14:26:31.899Z,23.17
2023-02-06T14:29:16.676Z,22.97
2023-02-06T14:32:20.779Z,20.13
2023-02-06T14:35:01.912Z,24.10
2023-02-06T14:37:57.299Z,22.70
2023-02-06T14:40:34.170Z,24.30
2023-02-06T14:43:06.221Z,21.23
2023-02-06T14:45:41.681Z,20.00
2023-02-06T14:48:18.684Z,27.33
2023-02-06T14:50:49.901Z,24.57
2023-02-06T14:53:36.475Z,19.67
2023-02-06T14:56:22.425Z,22.60
2023-02-06T14:58:49.364Z,24.30
2023-02-06T15:01:18.970Z,20.27
2023-02-06T15:03:46.992Z,23.00
2023-02-06T15:06:30.252Z,25.00
2023-02-06T15:08:56.877Z,23.67
2023-02-06T15:11:32.254Z,24.17
2023-02-06T15:14:06.669Z,21.53
2023-02-06T15:16:48.662Z,23.50
2023-02-06T15:19:18.338Z,21.57
2023-02-06T15:21:44.840Z,26.17
2023-02-06T15:24:44.527Z,27.17
2023-02-06T15:27:23.145Z,21.40
2023-02-06T15:29:50.728Z,29.20
2023-02-06T15:32:24.965Z,31.37
2023-02-06T15:34:51.498Z,39.60
2023-02-06T15:37:32.669Z,34.97
2023-02-06T15:40:22.908Z,28.00
2023-02-06T15:42:50.021Z,28.03
2023-02-06T15:45:22.440Z,28.00
2023-02-06T15:47:50.735Z,32.43
2023-02-06T15:50:23.895Z,32.00
2023-02-06T15:52:50.576Z,40.30
2023-02-06T15:55:33.071Z,51.47
2023-02-06T15:58:00.929Z,60.37
2023-02-06T16:00:33.531Z,113.33
2023-02-06T16:03:04.332Z,189.43
2023-02-06T16:05:41.541Z,265.63
2023-02-06T16:08:16.329Z,206.67
2023-02-06T16:10:45.380Z,233.33
2023-02-06T16:13:16.973Z,271.50
2023-02-06T16:16:18.773Z,282.80
2023-02-06T16:18:46.604Z,244.27
2023-02-06T16:21:16.185Z,319.67
2023-02-06T16:23:52.961Z,226.53
2023-02-06T16:26:27.871Z,45.53
2023-02-06T16:29:12.907Z,75.53
2023-02-06T16:31:42.439Z,310.83
2023-02-06T16:34:35.333Z,78.23
2023-02-06T16:37:02.053Z,86.17
2023-02-06T16:39:28.491Z,65.97
2023-02-06T16:41:55.102Z,51.37
2023-02-06T16:44:21.626Z,40.57
2023-02-06T16:46:48.200Z,84.53
2023-02-06T16:49:21.781Z,74.50
2023-02-06T16:51:53.532Z,88.00
2023-02-06T16:54:29.138Z,209.20
2023-02-06T16:56:57.165Z,52.00
2023-02-06T16:59:23.634Z,490.77
2023-02-06T17:01:50.253Z,188.67
2023-02-06T17:04:16.719Z,194.57
2023-02-06T17:06:43.298Z,89.27
2023-02-06T17:09:13.454Z,121.73
2023-02-06T17:11:40.015Z,172.10
2023-02-06T17:14:06.630Z,260.57
2023-02-06T17:16:33.747Z,201.90
2023-02-06T17:19:00.217Z,263.90
2023-02-06T17:21:29.722Z,438.93
2023-02-06T17:23:56.217Z,246.87
2023-02-06T17:26:23.183Z,112.07
2023-02-06T17:28:50.282Z,154.33
2023-02-06T17:31:17.400Z,247.83
2023-02-06T17:33:44.350Z,390.80
2023-02-06T17:36:18.640Z,298.23
2023-02-06T17:38:45.215Z,66.67
2023-02-06T17:41:11.801Z,78.20
2023-02-06T17:43:38.289Z,88.93
2023-02-06T17:46:05.798Z,95.27
2023-02-06T17:48:36.418Z,70.00
2023-02-06T17:51:04.942Z,50.07
2023-02-06T17:53:31.408Z,81.03
2023-02-06T17:55:57.962Z,156.13
2023-02-06T17:58:24.458Z,61.47
2023-02-06T18:00:50.997Z,196.23
2023-02-06T18:03:18.474Z,156.67
2023-02-06T18:05:47.152Z,186.27
2023-02-06T18:08:14.349Z,208.60
2023-02-06T18:10:40.804Z,158.33
2023-02-06T18:13:07.325Z,168.33
2023-02-06T18:15:33.831Z,142.70
2023-02-06T18:18:00.376Z,172.60
2023-02-06T18:20:26.862Z,122.03
2023-02-06T18:22:53.372Z,113.50
2023-02-06T18:25:19.929Z,185.87
2023-02-06T18:27:46.585Z,182.30
2023-02-06T18:30:14.613Z,116.10
2023-02-06T18:32:41.322Z,106.30
2023-02-06T18:35:08.228Z,95.67
2023-02-06T18:37:35.103Z,67.60
2023-02-06T18:40:01.642Z,67.77
2023-02-06T18:42:46.759Z,86.77
2023-02-06T18:45:13.716Z,191.20
2023-02-06T18:47:42.472Z,98.97
2023-02-06T18:50:11.126Z,90.17
2023-02-06T18:52:38.505Z,106.27
2023-02-06T18:55:06.134Z,103.30
2023-02-06T18:57:35.387Z,93.00
2023-02-06T19:00:02.401Z,88.93
2023-02-06T19:02:29.300Z,101.30
2023-02-06T19:04:59.933Z,69.87
2023-02-06T19:07:26.612Z,67.17
2023-02-06T19:10:00.465Z,68.27
2023-02-06T19:12:28.547Z,60.07
2023-02-06T19:15:00.006Z,56.37
2023-02-06T19:17:27.929Z,100.73
2023-02-06T19:19:54.846Z,69.93
2023-02-06T19:22:21.461Z,95.53
2023-02-06T19:24:47.988Z,142.07
2023-02-06T19:27:14.508Z,109.70
2023-02-06T19:29:42.231Z,186.47
2023-02-06T19:32:09.461Z,114.77
2023-02-06T19:34:40.320Z,113.30
2023-02-06T19:37:09.090Z,88.80
2023-02-06T19:39:38.008Z,100.87
2023-02-06T19:42:06.696Z,128.80
2023-02-06T19:44:34.108Z,135.63
2023-02-06T19:47:01.108Z,140.13
2023-02-06T19:49:27.944Z,179.67
2023-02-06T19:51:55.642Z,168.37
2023-02-06T19:54:22.115Z,69.77
2023-02-06T19:56:48.986Z,57.20
2023-02-06T19:59:24.232Z,240.70
2023-02-06T20:01:56.997Z,497.87
2023-02-06T20:04:26.206Z,49.60
2023-02-06T20:06:52.892Z,69.13
2023-02-06T20:09:20.536Z,113.77
2023-02-06T20:11:49.001Z,86.20
2023-02-06T20:14:16.293Z,132.13
2023-02-06T20:16:43.663Z,59.23
2023-02-06T20:19:16.616Z,137.67
2023-02-06T20:21:46.727Z,169.97
2023-02-06T20:24:18.917Z,133.00
2023-02-06T20:26:46.787Z,97.03
2023-02-06T20:29:21.646Z,102.87
2023-02-06T20:31:49.345Z,87.53
2023-02-06T20:34:16.576Z,97.87
2023-02-06T20:36:43.275Z,86.80
2023-02-06T20:39:11.448Z,62.97
2023-02-06T20:41:38.127Z,61.87
2023-02-06T20:44:04.818Z,71.87
2023-02-06T20:46:32.715Z,147.93
2023-02-06T20:49:02.084Z,89.73
2023-02-06T20:51:31.158Z,45.00
2023-02-06T20:53:58.282Z,99.73
2023-02-06T20:56:25.976Z,35.03
2023-02-06T20:58:52.873Z,29.37
2023-02-06T21:01:24.893Z,35.73
2023-02-06T21:03:54.700Z,85.13
2023-02-06T21:06:22.215Z,52.80
2023-02-06T21:08:57.234Z,56.10
2023-02-06T21:11:24.105Z,89.83
2023-02-06T21:13:50.587Z,51.10
2023-02-06T21:16:17.544Z,60.53
2023-02-06T21:18:46.047Z,67.83
2023-02-06T21:21:14.256Z,58.30
2023-02-06T21:23:42.542Z,76.73
2023-02-06T21:26:10.694Z,48.60
2023-02-06T21:28:38.801Z,103.33
2023-02-06T21:31:38.152Z,32.43
2023-02-06T21:34:10.001Z,47.10
2023-02-06T21:36:37.983Z,26.27
2023-02-06T21:39:04.944Z,32.80
2023-02-06T21:41:32.360Z,22.63
2023-02-06T21:43:58.871Z,35.17
2023-02-06T21:46:26.251Z,42.40
2023-02-06T21:48:53.624Z,43.83
2023-02-06T21:51:21.307Z,50.20
2023-02-06T21:53:48.108Z,44.30
2023-02-06T21:56:20.109Z,46.40
2023-02-06T21:58:47.324Z,43.73
2023-02-06T22:01:22.021Z,39.93
2023-02-06T22:03:49.103Z,39.10
2023-02-06T22:06:16.064Z,40.13
2023-02-06T22:08:44.874Z,31.13
2023-02-06T22:11:19.455Z,31.63
2023-02-06T22:13:48.011Z,33.50
2023-02-06T22:16:17.457Z,42.37
2023-02-06T22:18:44.330Z,35.87
2023-02-06T22:21:16.233Z,44.17
2023-02-06T22:23:44.336Z,52.97
2023-02-06T22:26:13.077Z,26.10
2023-02-06T22:28:40.359Z,130.60
2023-02-06T22:31:09.113Z,30.03
2023-02-06T22:33:36.135Z,24.53
2023-02-06T22:36:07.231Z,26.50
2023-02-06T22:38:34.163Z,29.10
2023-02-06T22:41:02.568Z,34.60
2023-02-06T22:43:30.867Z,25.43
2023-02-06T22:45:57.720Z,22.03
2023-02-06T22:48:24.556Z,27.57
2023-02-06T22:50:53.348Z,25.40
2023-02-06T22:53:29.965Z,24.77
2023-02-06T22:56:20.664Z,23.87
2023-02-06T22:58:48.557Z,23.77
2023-02-06T23:01:16.787Z,20.57
2023-02-06T23:03:43.327Z,22.40
2023-02-06T23:06:11.663Z,21.47
2023-02-06T23:08:38.710Z,22.80
2023-02-06T23:11:05.619Z,19.60
2023-02-06T23:13:32.453Z,22.10
2023-02-06T23:15:59.308Z,20.60
2023-02-06T23:18:26.653Z,17.57
2023-02-06T23:20:58.457Z,18.83
2023-02-06T23:23:25.090Z,19.03
2023-02-06T23:25:52.485Z,24.13
2023-02-06T23:28:20.429Z,20.43
2023-02-06T23:30:47.499Z,17.67
2023-02-06T23:33:14.148Z,21.83
2023-02-06T23:35:41.128Z,18.77
2023-02-06T23:38:08.385Z,18.27
2023-02-06T23:40:35.900Z,18.27
2023-02-06T23:43:02.705Z,23.63
2023-02-06T23:45:29.318Z,22.77
2023-02-06T23:47:56.439Z,21.43
2023-02-06T23:50:23.739Z,19.07
2023-02-06T23:52:50.572Z,21.13
2023-02-06T23:55:17.545Z,21.60
2023-02-06T23:57:44.134Z,21.83
